sensor_id;sensor_type;location;lat;lon;timestamp;temperature;humidity
16437;DHT22;8328;52.206;21.006;2023-05-10T00:00:27;8.90;41.90
16437;DHT22;8328;52.206;21.006;2023-05-10T00:02:55;8.90;42.30
16437;DHT22;8328;52.206;21.006;2023-05-10T00:05:21;8.80;42.60
16437;DHT22;8328;52.206;21.006;2023-05-10T00:07:46;8.80;42.60
16437;DHT22;8328;52.206;21.006;2023-05-10T00:10:12;8.80;42.90
16437;DHT22;8328;52.206;21.006;2023-05-10T00:12:38;8.80;43.20
16437;DHT22;8328;52.206;21.006;2023-05-10T00:15:04;8.70;43.40
16437;DHT22;8328;52.206;21.006;2023-05-10T00:17:30;8.70;43.90
16437;DHT22;8328;52.206;21.006;2023-05-10T00:19:56;8.60;43.80
16437;DHT22;8328;52.206;21.006;2023-05-10T00:22:22;8.60;44.20
16437;DHT22;8328;52.206;21.006;2023-05-10T00:24:48;8.60;44.10
16437;DHT22;8328;52.206;21.006;2023-05-10T00:27:14;8.60;44.40
16437;DHT22;8328;52.206;21.006;2023-05-10T00:29:39;8.50;44.70
16437;DHT22;8328;52.206;21.006;2023-05-10T00:32:05;8.50;45.00
16437;DHT22;8328;52.206;21.006;2023-05-10T00:34:31;8.50;45.10
16437;DHT22;8328;52.206;21.006;2023-05-10T00:36:57;8.50;45.20
16437;DHT22;8328;52.206;21.006;2023-05-10T00:39:23;8.50;45.50
16437;DHT22;8328;52.206;21.006;2023-05-10T00:41:49;8.50;45.60
16437;DHT22;8328;52.206;21.006;2023-05-10T00:44:15;8.50;45.80
16437;DHT22;8328;52.206;21.006;2023-05-10T00:46:41;8.40;46.00
16437;DHT22;8328;52.206;21.006;2023-05-10T00:49:07;8.40;46.10
16437;DHT22;8328;52.206;21.006;2023-05-10T00:51:33;8.40;46.40
16437;DHT22;8328;52.206;21.006;2023-05-10T00:53:59;8.40;46.50
16437;DHT22;8328;52.206;21.006;2023-05-10T00:56:26;8.30;46.70
16437;DHT22;8328;52.206;21.006;2023-05-10T00:58:53;8.30;47.00
16437;DHT22;8328;52.206;21.006;2023-05-10T01:01:19;8.30;47.10
16437;DHT22;8328;52.206;21.006;2023-05-10T01:03:46;8.30;47.30
16437;DHT22;8328;52.206;21.006;2023-05-10T01:06:12;8.30;47.50
16437;DHT22;8328;52.206;21.006;2023-05-10T01:08:39;8.30;47.90
16437;DHT22;8328;52.206;21.006;2023-05-10T01:11:05;8.30;48.00
16437;DHT22;8328;52.206;21.006;2023-05-10T01:13:34;8.20;48.20
16437;DHT22;8328;52.206;21.006;2023-05-10T01:16:01;8.20;48.20
16437;DHT22;8328;52.206;21.006;2023-05-10T01:18:29;8.20;48.30
16437;DHT22;8328;52.206;21.006;2023-05-10T01:24:12;8.20;48.80
16437;DHT22;8328;52.206;21.006;2023-05-10T01:35:23;8.10;49.60
16437;DHT22;8328;52.206;21.006;2023-05-10T01:37:57;8.00;49.60
16437;DHT22;8328;52.206;21.006;2023-05-10T01:43:19;8.00;50.10
16437;DHT22;8328;52.206;21.006;2023-05-10T01:45:54;8.00;50.20
16437;DHT22;8328;52.206;21.006;2023-05-10T01:48:23;8.00;50.40
16437;DHT22;8328;52.206;21.006;2023-05-10T01:50:53;8.00;50.30
16437;DHT22;8328;52.206;21.006;2023-05-10T01:53:20;8.00;50.40
16437;DHT22;8328;52.206;21.006;2023-05-10T01:55:49;7.90;50.40
16437;DHT22;8328;52.206;21.006;2023-05-10T01:58:36;8.00;50.80
16437;DHT22;8328;52.206;21.006;2023-05-10T02:01:04;8.00;50.90
16437;DHT22;8328;52.206;21.006;2023-05-10T02:03:32;8.00;50.80
16437;DHT22;8328;52.206;21.006;2023-05-10T02:05:59;7.90;50.80
16437;DHT22;8328;52.206;21.006;2023-05-10T02:08:25;8.00;51.00
16437;DHT22;8328;52.206;21.006;2023-05-10T02:10:55;7.90;51.10
16437;DHT22;8328;52.206;21.006;2023-05-10T02:13:23;7.90;51.40
16437;DHT22;8328;52.206;21.006;2023-05-10T02:15:50;7.90;51.40
16437;DHT22;8328;52.206;21.006;2023-05-10T02:18:18;7.90;51.40
16437;DHT22;8328;52.206;21.006;2023-05-10T02:20:46;7.90;51.50
16437;DHT22;8328;52.206;21.006;2023-05-10T02:23:13;7.90;51.70
16437;DHT22;8328;52.206;21.006;2023-05-10T02:25:41;7.80;51.60
16437;DHT22;8328;52.206;21.006;2023-05-10T02:28:08;7.80;51.80
16437;DHT22;8328;52.206;21.006;2023-05-10T02:30:36;7.80;51.80
16437;DHT22;8328;52.206;21.006;2023-05-10T02:33:04;7.80;52.10
16437;DHT22;8328;52.206;21.006;2023-05-10T02:35:32;7.80;52.00
16437;DHT22;8328;52.206;21.006;2023-05-10T02:37:59;7.80;52.20
16437;DHT22;8328;52.206;21.006;2023-05-10T02:40:27;7.80;52.50
16437;DHT22;8328;52.206;21.006;2023-05-10T02:42:55;7.70;52.70
16437;DHT22;8328;52.206;21.006;2023-05-10T02:45:24;7.80;53.20
16437;DHT22;8328;52.206;21.006;2023-05-10T02:47:52;7.70;53.30
16437;DHT22;8328;52.206;21.006;2023-05-10T02:50:18;7.70;53.60
16437;DHT22;8328;52.206;21.006;2023-05-10T02:52:51;7.70;53.90
16437;DHT22;8328;52.206;21.006;2023-05-10T02:55:25;7.70;54.00
16437;DHT22;8328;52.206;21.006;2023-05-10T02:57:58;7.70;54.30
16437;DHT22;8328;52.206;21.006;2023-05-10T03:00:25;7.70;54.70
16437;DHT22;8328;52.206;21.006;2023-05-10T03:02:50;7.70;54.90
16437;DHT22;8328;52.206;21.006;2023-05-10T03:05:16;7.70;54.90
16437;DHT22;8328;52.206;21.006;2023-05-10T03:07:43;7.70;55.00
16437;DHT22;8328;52.206;21.006;2023-05-10T03:10:09;7.70;55.10
16437;DHT22;8328;52.206;21.006;2023-05-10T03:18:04;7.80;55.50
16437;DHT22;8328;52.206;21.006;2023-05-10T03:20:42;8.00;55.90
16437;DHT22;8328;52.206;21.006;2023-05-10T03:23:35;7.90;56.40
16437;DHT22;8328;52.206;21.006;2023-05-10T03:26:02;7.80;56.00
16437;DHT22;8328;52.206;21.006;2023-05-10T03:28:30;7.80;56.20
16437;DHT22;8328;52.206;21.006;2023-05-10T03:30:57;7.80;56.70
16437;DHT22;8328;52.206;21.006;2023-05-10T03:33:23;7.80;56.80
16437;DHT22;8328;52.206;21.006;2023-05-10T03:35:49;7.80;56.90
16437;DHT22;8328;52.206;21.006;2023-05-10T03:38:15;7.80;57.10
16437;DHT22;8328;52.206;21.006;2023-05-10T03:40:41;7.80;57.30
16437;DHT22;8328;52.206;21.006;2023-05-10T03:43:06;7.90;57.50
16437;DHT22;8328;52.206;21.006;2023-05-10T03:45:32;7.90;57.20
16437;DHT22;8328;52.206;21.006;2023-05-10T03:47:58;7.90;57.10
16437;DHT22;8328;52.206;21.006;2023-05-10T03:50:24;8.00;57.10
16437;DHT22;8328;52.206;21.006;2023-05-10T03:52:50;8.00;56.90
16437;DHT22;8328;52.206;21.006;2023-05-10T03:55:16;7.60;56.60
16437;DHT22;8328;52.206;21.006;2023-05-10T03:57:42;8.20;57.00
16437;DHT22;8328;52.206;21.006;2023-05-10T04:00:09;8.20;57.00
16437;DHT22;8328;52.206;21.006;2023-05-10T04:02:35;8.30;57.10
16437;DHT22;8328;52.206;21.006;2023-05-10T04:05:01;8.40;56.90
16437;DHT22;8328;52.206;21.006;2023-05-10T04:07:27;7.20;55.70
16437;DHT22;8328;52.206;21.006;2023-05-10T04:09:53;8.50;56.00
16437;DHT22;8328;52.206;21.006;2023-05-10T04:12:19;8.60;55.90
16437;DHT22;8328;52.206;21.006;2023-05-10T04:14:45;8.80;55.50
16437;DHT22;8328;52.206;21.006;2023-05-10T04:17:11;8.90;55.00
16437;DHT22;8328;52.206;21.006;2023-05-10T04:19:37;9.00;54.30
16437;DHT22;8328;52.206;21.006;2023-05-10T04:22:03;9.10;54.00
16437;DHT22;8328;52.206;21.006;2023-05-10T04:24:28;9.20;53.70
16437;DHT22;8328;52.206;21.006;2023-05-10T04:26:55;9.30;53.10
16437;DHT22;8328;52.206;21.006;2023-05-10T04:29:21;9.40;52.70
16437;DHT22;8328;52.206;21.006;2023-05-10T04:31:46;9.60;52.20
16437;DHT22;8328;52.206;21.006;2023-05-10T04:34:12;9.70;51.80
16437;DHT22;8328;52.206;21.006;2023-05-10T04:36:38;9.80;50.90
16437;DHT22;8328;52.206;21.006;2023-05-10T04:39:04;10.00;49.60
16437;DHT22;8328;52.206;21.006;2023-05-10T04:41:30;10.20;49.20
16437;DHT22;8328;52.206;21.006;2023-05-10T04:43:56;10.40;49.00
16437;DHT22;8328;52.206;21.006;2023-05-10T04:46:22;10.60;48.30
16437;DHT22;8328;52.206;21.006;2023-05-10T04:48:47;10.70;47.90
16437;DHT22;8328;52.206;21.006;2023-05-10T04:51:16;10.90;47.40
16437;DHT22;8328;52.206;21.006;2023-05-10T04:53:42;11.10;47.20
16437;DHT22;8328;52.206;21.006;2023-05-10T04:56:07;11.20;46.90
16437;DHT22;8328;52.206;21.006;2023-05-10T04:58:33;11.40;46.30
16437;DHT22;8328;52.206;21.006;2023-05-10T05:01:08;11.60;45.80
16437;DHT22;8328;52.206;21.006;2023-05-10T05:03:36;11.70;44.40
16437;DHT22;8328;52.206;21.006;2023-05-10T05:06:02;11.90;43.90
16437;DHT22;8328;52.206;21.006;2023-05-10T05:08:28;12.10;43.10
16437;DHT22;8328;52.206;21.006;2023-05-10T05:10:53;12.30;41.90
16437;DHT22;8328;52.206;21.006;2023-05-10T05:13:20;12.50;41.30
16437;DHT22;8328;52.206;21.006;2023-05-10T05:15:45;12.60;41.30
16437;DHT22;8328;52.206;21.006;2023-05-10T05:18:11;12.90;41.10
16437;DHT22;8328;52.206;21.006;2023-05-10T05:20:39;13.00;39.60
16437;DHT22;8328;52.206;21.006;2023-05-10T05:23:04;13.20;39.00
16437;DHT22;8328;52.206;21.006;2023-05-10T05:25:30;13.30;38.30
16437;DHT22;8328;52.206;21.006;2023-05-10T05:27:56;13.50;38.40
16437;DHT22;8328;52.206;21.006;2023-05-10T05:30:22;13.90;37.40
16437;DHT22;8328;52.206;21.006;2023-05-10T05:32:47;14.10;36.50
16437;DHT22;8328;52.206;21.006;2023-05-10T05:35:13;14.00;35.90
16437;DHT22;8328;52.206;21.006;2023-05-10T05:37:39;14.10;35.60
16437;DHT22;8328;52.206;21.006;2023-05-10T05:40:05;14.10;35.20
16437;DHT22;8328;52.206;21.006;2023-05-10T05:42:31;14.10;35.40
16437;DHT22;8328;52.206;21.006;2023-05-10T05:44:58;14.20;35.10
16437;DHT22;8328;52.206;21.006;2023-05-10T05:47:27;14.20;34.70
16437;DHT22;8328;52.206;21.006;2023-05-10T05:49:53;14.60;37.10
16437;DHT22;8328;52.206;21.006;2023-05-10T05:52:19;15.10;37.90
16437;DHT22;8328;52.206;21.006;2023-05-10T05:54:45;15.30;37.00
16437;DHT22;8328;52.206;21.006;2023-05-10T05:57:11;15.60;36.60
16437;DHT22;8328;52.206;21.006;2023-05-10T05:59:36;15.80;34.60
16437;DHT22;8328;52.206;21.006;2023-05-10T06:02:09;15.80;34.40
16437;DHT22;8328;52.206;21.006;2023-05-10T06:04:35;16.20;35.00
16437;DHT22;8328;52.206;21.006;2023-05-10T06:07:01;16.80;33.40
16437;DHT22;8328;52.206;21.006;2023-05-10T06:09:26;17.10;31.60
16437;DHT22;8328;52.206;21.006;2023-05-10T06:11:52;17.10;30.60
16437;DHT22;8328;52.206;21.006;2023-05-10T06:14:20;17.20;31.60
16437;DHT22;8328;52.206;21.006;2023-05-10T06:16:46;17.40;30.00
16437;DHT22;8328;52.206;21.006;2023-05-10T06:19:12;17.30;28.70
16437;DHT22;8328;52.206;21.006;2023-05-10T06:21:38;17.10;28.20
16437;DHT22;8328;52.206;21.006;2023-05-10T06:24:04;16.90;28.30
16437;DHT22;8328;52.206;21.006;2023-05-10T06:26:30;16.70;28.50
16437;DHT22;8328;52.206;21.006;2023-05-10T06:28:56;16.50;28.70
16437;DHT22;8328;52.206;21.006;2023-05-10T06:31:22;16.40;28.90
16437;DHT22;8328;52.206;21.006;2023-05-10T06:33:48;16.40;29.10
16437;DHT22;8328;52.206;21.006;2023-05-10T06:36:14;16.40;29.40
16437;DHT22;8328;52.206;21.006;2023-05-10T06:38:39;16.30;29.70
16437;DHT22;8328;52.206;21.006;2023-05-10T06:41:05;16.30;29.60
16437;DHT22;8328;52.206;21.006;2023-05-10T06:43:31;16.30;29.40
16437;DHT22;8328;52.206;21.006;2023-05-10T06:45:57;16.20;29.50
16437;DHT22;8328;52.206;21.006;2023-05-10T06:48:23;16.10;29.40
16437;DHT22;8328;52.206;21.006;2023-05-10T06:50:49;16.10;29.40
16437;DHT22;8328;52.206;21.006;2023-05-10T06:53:15;16.00;29.30
16437;DHT22;8328;52.206;21.006;2023-05-10T06:55:41;16.10;29.40
16437;DHT22;8328;52.206;21.006;2023-05-10T06:58:06;16.10;29.40
16437;DHT22;8328;52.206;21.006;2023-05-10T07:00:32;16.20;29.30
16437;DHT22;8328;52.206;21.006;2023-05-10T07:02:58;16.20;28.90
16437;DHT22;8328;52.206;21.006;2023-05-10T07:05:24;16.30;29.20
16437;DHT22;8328;52.206;21.006;2023-05-10T07:07:50;16.40;28.50
16437;DHT22;8328;52.206;21.006;2023-05-10T07:10:17;16.50;28.50
16437;DHT22;8328;52.206;21.006;2023-05-10T07:12:43;16.50;28.60
16437;DHT22;8328;52.206;21.006;2023-05-10T07:15:09;16.60;28.20
16437;DHT22;8328;52.206;21.006;2023-05-10T07:17:35;16.60;27.70
16437;DHT22;8328;52.206;21.006;2023-05-10T07:20:01;16.70;27.90
16437;DHT22;8328;52.206;21.006;2023-05-10T07:22:27;16.70;27.00
16437;DHT22;8328;52.206;21.006;2023-05-10T07:24:53;16.70;26.40
16437;DHT22;8328;52.206;21.006;2023-05-10T07:27:19;16.70;25.50
16437;DHT22;8328;52.206;21.006;2023-05-10T07:29:44;16.70;25.70
16437;DHT22;8328;52.206;21.006;2023-05-10T07:32:10;16.80;25.90
16437;DHT22;8328;52.206;21.006;2023-05-10T07:34:36;16.80;25.50
16437;DHT22;8328;52.206;21.006;2023-05-10T07:37:03;16.80;24.60
16437;DHT22;8328;52.206;21.006;2023-05-10T07:39:29;16.80;24.00
16437;DHT22;8328;52.206;21.006;2023-05-10T07:41:55;16.90;22.60
16437;DHT22;8328;52.206;21.006;2023-05-10T07:44:21;16.90;21.70
16437;DHT22;8328;52.206;21.006;2023-05-10T07:46:47;16.80;21.80
16437;DHT22;8328;52.206;21.006;2023-05-10T07:49:18;16.90;22.20
16437;DHT22;8328;52.206;21.006;2023-05-10T07:51:44;16.90;22.00
16437;DHT22;8328;52.206;21.006;2023-05-10T07:54:09;16.90;21.70
16437;DHT22;8328;52.206;21.006;2023-05-10T07:56:35;16.90;21.80
16437;DHT22;8328;52.206;21.006;2023-05-10T07:59:03;17.00;21.40
16437;DHT22;8328;52.206;21.006;2023-05-10T08:01:38;17.00;19.70
16437;DHT22;8328;52.206;21.006;2023-05-10T08:04:11;17.00;19.80
16437;DHT22;8328;52.206;21.006;2023-05-10T08:06:41;17.00;20.50
16437;DHT22;8328;52.206;21.006;2023-05-10T08:12:06;17.10;20.00
16437;DHT22;8328;52.206;21.006;2023-05-10T08:14:42;17.10;19.00
16437;DHT22;8328;52.206;21.006;2023-05-10T08:17:08;17.00;18.70
16437;DHT22;8328;52.206;21.006;2023-05-10T08:19:34;17.00;18.20
16437;DHT22;8328;52.206;21.006;2023-05-10T08:22:00;16.90;18.60
16437;DHT22;8328;52.206;21.006;2023-05-10T08:24:27;17.00;18.50
16437;DHT22;8328;52.206;21.006;2023-05-10T08:26:54;17.00;17.50
16437;DHT22;8328;52.206;21.006;2023-05-10T08:29:20;17.00;17.40
16437;DHT22;8328;52.206;21.006;2023-05-10T08:31:45;16.90;17.10
16437;DHT22;8328;52.206;21.006;2023-05-10T08:34:11;16.90;17.20
16437;DHT22;8328;52.206;21.006;2023-05-10T08:36:37;17.00;17.20
16437;DHT22;8328;52.206;21.006;2023-05-10T08:39:04;16.90;16.70
16437;DHT22;8328;52.206;21.006;2023-05-10T08:41:33;17.00;16.90
16437;DHT22;8328;52.206;21.006;2023-05-10T08:44:04;17.00;17.00
16437;DHT22;8328;52.206;21.006;2023-05-10T08:46:31;17.10;16.90
16437;DHT22;8328;52.206;21.006;2023-05-10T08:49:00;17.10;16.60
16437;DHT22;8328;52.206;21.006;2023-05-10T08:51:30;17.10;16.70
16437;DHT22;8328;52.206;21.006;2023-05-10T08:54:00;17.20;17.00
16437;DHT22;8328;52.206;21.006;2023-05-10T08:56:26;17.30;17.20
16437;DHT22;8328;52.206;21.006;2023-05-10T08:58:52;17.30;16.90
16437;DHT22;8328;52.206;21.006;2023-05-10T09:01:21;17.50;16.70
16437;DHT22;8328;52.206;21.006;2023-05-10T09:03:48;17.50;16.40
16437;DHT22;8328;52.206;21.006;2023-05-10T09:06:14;17.70;16.00
16437;DHT22;8328;52.206;21.006;2023-05-10T09:08:41;17.70;16.00
16437;DHT22;8328;52.206;21.006;2023-05-10T09:11:09;17.90;15.70
16437;DHT22;8328;52.206;21.006;2023-05-10T09:13:36;17.90;15.60
16437;DHT22;8328;52.206;21.006;2023-05-10T09:16:04;18.10;15.50
16437;DHT22;8328;52.206;21.006;2023-05-10T09:18:30;18.20;15.30
16437;DHT22;8328;52.206;21.006;2023-05-10T09:20:56;18.30;15.20
16437;DHT22;8328;52.206;21.006;2023-05-10T09:23:22;18.40;14.80
16437;DHT22;8328;52.206;21.006;2023-05-10T09:26:02;18.50;15.20
16437;DHT22;8328;52.206;21.006;2023-05-10T09:28:53;18.70;15.20
16437;DHT22;8328;52.206;21.006;2023-05-10T09:31:19;18.80;14.20
16437;DHT22;8328;52.206;21.006;2023-05-10T09:33:46;18.80;14.20
16437;DHT22;8328;52.206;21.006;2023-05-10T09:36:13;18.90;14.20
16437;DHT22;8328;52.206;21.006;2023-05-10T09:38:49;19.00;14.50
16437;DHT22;8328;52.206;21.006;2023-05-10T09:41:21;19.20;14.90
16437;DHT22;8328;52.206;21.006;2023-05-10T09:43:47;19.30;14.50
16437;DHT22;8328;52.206;21.006;2023-05-10T09:46:14;19.40;14.60
16437;DHT22;8328;52.206;21.006;2023-05-10T09:48:48;19.60;14.60
16437;DHT22;8328;52.206;21.006;2023-05-10T09:51:24;19.70;14.10
16437;DHT22;8328;52.206;21.006;2023-05-10T09:54:14;19.80;13.50
16437;DHT22;8328;52.206;21.006;2023-05-10T09:56:40;19.90;13.70
16437;DHT22;8328;52.206;21.006;2023-05-10T09:59:08;20.00;14.00
16437;DHT22;8328;52.206;21.006;2023-05-10T10:01:34;20.10;13.30
16437;DHT22;8328;52.206;21.006;2023-05-10T10:04:09;20.10;13.50
16437;DHT22;8328;52.206;21.006;2023-05-10T10:06:39;20.20;13.80
16437;DHT22;8328;52.206;21.006;2023-05-10T10:09:06;20.10;13.00
16437;DHT22;8328;52.206;21.006;2023-05-10T10:11:34;20.00;12.90
16437;DHT22;8328;52.206;21.006;2023-05-10T10:14:01;20.10;13.10
16437;DHT22;8328;52.206;21.006;2023-05-10T10:16:29;20.20;13.30
16437;DHT22;8328;52.206;21.006;2023-05-10T10:18:55;20.30;12.80
16437;DHT22;8328;52.206;21.006;2023-05-10T10:21:22;20.40;12.80
16437;DHT22;8328;52.206;21.006;2023-05-10T10:23:48;20.40;12.40
16437;DHT22;8328;52.206;21.006;2023-05-10T10:26:15;20.30;11.90
16437;DHT22;8328;52.206;21.006;2023-05-10T10:28:56;20.20;11.90
16437;DHT22;8328;52.206;21.006;2023-05-10T10:34:26;20.50;12.50
16437;DHT22;8328;52.206;21.006;2023-05-10T10:36:56;20.70;11.70
16437;DHT22;8328;52.206;21.006;2023-05-10T10:39:27;20.90;11.60
16437;DHT22;8328;52.206;21.006;2023-05-10T10:41:57;20.90;11.40
16437;DHT22;8328;52.206;21.006;2023-05-10T10:47:24;21.40;11.80
16437;DHT22;8328;52.206;21.006;2023-05-10T10:55:16;22.00;9.70
16437;DHT22;8328;52.206;21.006;2023-05-10T10:57:54;22.30;9.20
16437;DHT22;8328;52.206;21.006;2023-05-10T11:00:35;22.60;9.00
16437;DHT22;8328;52.206;21.006;2023-05-10T11:03:12;22.90;8.70
16437;DHT22;8328;52.206;21.006;2023-05-10T11:05:48;23.40;8.50
16437;DHT22;8328;52.206;21.006;2023-05-10T11:08:30;23.70;8.00
16437;DHT22;8328;52.206;21.006;2023-05-10T11:13:43;23.90;6.70
16437;DHT22;8328;52.206;21.006;2023-05-10T11:16:11;24.20;6.90
16437;DHT22;8328;52.206;21.006;2023-05-10T11:18:37;24.60;6.20
16437;DHT22;8328;52.206;21.006;2023-05-10T11:21:04;24.80;6.00
16437;DHT22;8328;52.206;21.006;2023-05-10T11:26:12;25.50;5.50
16437;DHT22;8328;52.206;21.006;2023-05-10T11:28:42;25.60;4.60
16437;DHT22;8328;52.206;21.006;2023-05-10T11:31:08;25.60;4.50
16437;DHT22;8328;52.206;21.006;2023-05-10T11:33:48;25.70;4.60
16437;DHT22;8328;52.206;21.006;2023-05-10T11:36:34;26.10;4.80
16437;DHT22;8328;52.206;21.006;2023-05-10T11:39:01;26.60;5.00
16437;DHT22;8328;52.206;21.006;2023-05-10T11:41:29;26.40;3.70
16437;DHT22;8328;52.206;21.006;2023-05-10T11:43:56;26.30;4.90
16437;DHT22;8328;52.206;21.006;2023-05-10T11:46:25;26.60;7.30
16437;DHT22;8328;52.206;21.006;2023-05-10T11:49:01;26.90;7.10
16437;DHT22;8328;52.206;21.006;2023-05-10T11:51:32;27.20;7.40
16437;DHT22;8328;52.206;21.006;2023-05-10T11:53:58;27.70;6.10
16437;DHT22;8328;52.206;21.006;2023-05-10T11:56:24;28.00;5.20
16437;DHT22;8328;52.206;21.006;2023-05-10T11:58:56;28.30;4.90
16437;DHT22;8328;52.206;21.006;2023-05-10T12:01:36;28.30;4.60
16437;DHT22;8328;52.206;21.006;2023-05-10T12:04:02;28.50;2.90
16437;DHT22;8328;52.206;21.006;2023-05-10T12:06:30;28.50;1.70
16437;DHT22;8328;52.206;21.006;2023-05-10T12:08:56;28.80;2.00
16437;DHT22;8328;52.206;21.006;2023-05-10T12:11:25;29.10;1.40
16437;DHT22;8328;52.206;21.006;2023-05-10T12:13:53;29.00;1.00
16437;DHT22;8328;52.206;21.006;2023-05-10T12:16:20;28.80;1.00
16437;DHT22;8328;52.206;21.006;2023-05-10T12:18:55;29.20;1.00
16437;DHT22;8328;52.206;21.006;2023-05-10T12:21:21;29.40;1.00
16437;DHT22;8328;52.206;21.006;2023-05-10T12:23:51;29.70;1.00
16437;DHT22;8328;52.206;21.006;2023-05-10T12:26:18;29.40;1.00
16437;DHT22;8328;52.206;21.006;2023-05-10T12:28:44;29.50;1.00
16437;DHT22;8328;52.206;21.006;2023-05-10T12:31:11;29.80;1.00
16437;DHT22;8328;52.206;21.006;2023-05-10T12:33:38;30.20;1.00
16437;DHT22;8328;52.206;21.006;2023-05-10T12:36:06;30.60;1.00
16437;DHT22;8328;52.206;21.006;2023-05-10T12:38:39;31.40;1.00
16437;DHT22;8328;52.206;21.006;2023-05-10T12:41:12;32.70;1.00
16437;DHT22;8328;52.206;21.006;2023-05-10T12:43:39;33.90;1.00
16437;DHT22;8328;52.206;21.006;2023-05-10T12:46:13;35.00;1.00
16437;DHT22;8328;52.206;21.006;2023-05-10T12:48:41;35.60;1.00
16437;DHT22;8328;52.206;21.006;2023-05-10T12:51:10;36.20;1.00
16437;DHT22;8328;52.206;21.006;2023-05-10T12:53:42;37.30;1.00
16437;DHT22;8328;52.206;21.006;2023-05-10T12:56:11;38.20;1.00
16437;DHT22;8328;52.206;21.006;2023-05-10T12:58:39;38.60;1.00
16437;DHT22;8328;52.206;21.006;2023-05-10T13:01:05;38.60;1.00
16437;DHT22;8328;52.206;21.006;2023-05-10T13:03:31;38.70;1.00
16437;DHT22;8328;52.206;21.006;2023-05-10T13:05:57;39.60;1.00
16437;DHT22;8328;52.206;21.006;2023-05-10T13:08:28;40.00;1.00
16437;DHT22;8328;52.206;21.006;2023-05-10T13:11:01;40.40;1.00
16437;DHT22;8328;52.206;21.006;2023-05-10T13:13:27;40.80;1.00
16437;DHT22;8328;52.206;21.006;2023-05-10T13:15:53;40.70;1.00
16437;DHT22;8328;52.206;21.006;2023-05-10T13:18:19;41.40;1.00
16437;DHT22;8328;52.206;21.006;2023-05-10T13:20:45;41.70;1.00
16437;DHT22;8328;52.206;21.006;2023-05-10T13:23:11;41.60;1.00
16437;DHT22;8328;52.206;21.006;2023-05-10T13:25:37;41.90;1.00
16437;DHT22;8328;52.206;21.006;2023-05-10T13:28:03;42.60;1.00
16437;DHT22;8328;52.206;21.006;2023-05-10T13:30:28;43.00;1.00
16437;DHT22;8328;52.206;21.006;2023-05-10T13:32:55;43.50;1.00
16437;DHT22;8328;52.206;21.006;2023-05-10T13:35:21;44.00;1.00
16437;DHT22;8328;52.206;21.006;2023-05-10T13:37:47;44.40;1.00
16437;DHT22;8328;52.206;21.006;2023-05-10T13:40:13;43.60;1.00
16437;DHT22;8328;52.206;21.006;2023-05-10T13:42:40;45.00;1.00
16437;DHT22;8328;52.206;21.006;2023-05-10T13:45:06;45.10;1.00
16437;DHT22;8328;52.206;21.006;2023-05-10T13:47:32;45.30;1.00
16437;DHT22;8328;52.206;21.006;2023-05-10T13:49:58;45.90;1.00
16437;DHT22;8328;52.206;21.006;2023-05-10T13:52:24;46.20;1.00
16437;DHT22;8328;52.206;21.006;2023-05-10T13:54:54;46.20;1.00
16437;DHT22;8328;52.206;21.006;2023-05-10T14:00:45;46.90;1.00
16437;DHT22;8328;52.206;21.006;2023-05-10T14:03:15;46.90;1.00
16437;DHT22;8328;52.206;21.006;2023-05-10T14:05:41;47.00;1.00
16437;DHT22;8328;52.206;21.006;2023-05-10T14:08:08;47.10;1.00
16437;DHT22;8328;52.206;21.006;2023-05-10T14:10:35;46.60;1.00
16437;DHT22;8328;52.206;21.006;2023-05-10T14:13:01;46.30;1.00
16437;DHT22;8328;52.206;21.006;2023-05-10T14:15:28;46.30;1.00
16437;DHT22;8328;52.206;21.006;2023-05-10T14:17:54;47.00;1.00
16437;DHT22;8328;52.206;21.006;2023-05-10T14:20:31;46.60;1.00
16437;DHT22;8328;52.206;21.006;2023-05-10T14:22:59;47.00;1.00
16437;DHT22;8328;52.206;21.006;2023-05-10T14:25:25;47.00;1.00
16437;DHT22;8328;52.206;21.006;2023-05-10T14:27:51;46.50;1.00
16437;DHT22;8328;52.206;21.006;2023-05-10T14:30:20;46.70;1.00
16437;DHT22;8328;52.206;21.006;2023-05-10T14:32:46;46.70;1.00
16437;DHT22;8328;52.206;21.006;2023-05-10T14:35:13;46.70;1.00
16437;DHT22;8328;52.206;21.006;2023-05-10T14:37:39;46.20;1.00
16437;DHT22;8328;52.206;21.006;2023-05-10T14:40:06;43.70;1.00
16437;DHT22;8328;52.206;21.006;2023-05-10T14:42:32;39.20;1.00
16437;DHT22;8328;52.206;21.006;2023-05-10T14:44:58;35.50;1.00
16437;DHT22;8328;52.206;21.006;2023-05-10T14:47:24;32.80;1.00
16437;DHT22;8328;52.206;21.006;2023-05-10T14:49:50;30.60;1.00
16437;DHT22;8328;52.206;21.006;2023-05-10T14:52:15;28.80;1.00
16437;DHT22;8328;52.206;21.006;2023-05-10T14:54:42;27.50;1.00
16437;DHT22;8328;52.206;21.006;2023-05-10T14:57:07;26.20;1.00
16437;DHT22;8328;52.206;21.006;2023-05-10T14:59:33;25.20;1.00
16437;DHT22;8328;52.206;21.006;2023-05-10T15:01:59;24.40;1.00
16437;DHT22;8328;52.206;21.006;2023-05-10T15:04:25;23.60;1.00
16437;DHT22;8328;52.206;21.006;2023-05-10T15:06:50;23.10;1.00
16437;DHT22;8328;52.206;21.006;2023-05-10T15:09:17;22.70;1.00
16437;DHT22;8328;52.206;21.006;2023-05-10T15:11:43;22.20;1.00
16437;DHT22;8328;52.206;21.006;2023-05-10T15:14:11;21.80;1.00
16437;DHT22;8328;52.206;21.006;2023-05-10T15:16:36;21.70;1.00
16437;DHT22;8328;52.206;21.006;2023-05-10T15:19:03;21.40;1.00
16437;DHT22;8328;52.206;21.006;2023-05-10T15:21:29;21.20;1.30
16437;DHT22;8328;52.206;21.006;2023-05-10T15:24:00;20.90;1.40
16437;DHT22;8328;52.206;21.006;2023-05-10T15:26:26;20.60;1.90
16437;DHT22;8328;52.206;21.006;2023-05-10T15:28:52;20.50;1.90
16437;DHT22;8328;52.206;21.006;2023-05-10T15:31:19;20.30;2.20
16437;DHT22;8328;52.206;21.006;2023-05-10T15:33:44;20.10;2.40
16437;DHT22;8328;52.206;21.006;2023-05-10T15:36:11;19.90;2.50
16437;DHT22;8328;52.206;21.006;2023-05-10T15:38:37;19.80;2.70
16437;DHT22;8328;52.206;21.006;2023-05-10T15:41:03;19.70;3.20
16437;DHT22;8328;52.206;21.006;2023-05-10T15:43:31;19.60;3.30
16437;DHT22;8328;52.206;21.006;2023-05-10T15:45:57;19.50;3.30
16437;DHT22;8328;52.206;21.006;2023-05-10T15:48:22;19.40;3.60
16437;DHT22;8328;52.206;21.006;2023-05-10T15:50:48;19.30;3.70
16437;DHT22;8328;52.206;21.006;2023-05-10T15:53:16;19.30;3.80
16437;DHT22;8328;52.206;21.006;2023-05-10T15:55:42;19.20;3.40
16437;DHT22;8328;52.206;21.006;2023-05-10T15:58:08;19.10;3.50
16437;DHT22;8328;52.206;21.006;2023-05-10T16:00:34;19.00;3.40
16437;DHT22;8328;52.206;21.006;2023-05-10T16:03:00;19.00;3.40
16437;DHT22;8328;52.206;21.006;2023-05-10T16:05:28;18.80;3.40
16437;DHT22;8328;52.206;21.006;2023-05-10T16:07:58;18.70;3.50
16437;DHT22;8328;52.206;21.006;2023-05-10T16:10:24;18.60;3.40
16437;DHT22;8328;52.206;21.006;2023-05-10T16:12:51;18.40;3.20
16437;DHT22;8328;52.206;21.006;2023-05-10T16:15:21;18.30;3.10
16437;DHT22;8328;52.206;21.006;2023-05-10T16:17:48;18.20;3.70
16437;DHT22;8328;52.206;21.006;2023-05-10T16:20:17;18.20;3.30
16437;DHT22;8328;52.206;21.006;2023-05-10T16:22:42;18.10;3.40
16437;DHT22;8328;52.206;21.006;2023-05-10T16:25:09;18.00;3.40